createdAt,value
2018-09-14T00:04:45.146Z,80.40
2018-09-14T00:41:42.067Z,81.10
2018-09-14T00:44:21.143Z,85.20
2018-09-14T00:47:05.849Z,84.60
2018-09-14T00:49:53.587Z,83.80
2018-09-14T02:26:37.768Z,83.10
2018-09-14T02:29:28.175Z,82.60
2018-09-14T02:35:11.617Z,81.20
2018-09-14T02:40:52.253Z,80.60
2018-09-14T02:49:04.004Z,80.30
2018-09-14T02:51:52.874Z,80.80
2018-09-14T03:00:52.712Z,82.20
2018-09-14T03:03:36.899Z,82.40
2018-09-14T03:06:23.826Z,82.50
2018-09-14T03:09:06.928Z,82.60
2018-09-14T03:14:37.690Z,82.50
2018-09-14T03:17:24.087Z,82.50
2018-09-14T03:20:03.391Z,82.40
2018-09-14T03:22:45.563Z,82.50
2018-09-14T03:25:24.995Z,82.50
2018-09-14T03:28:19.725Z,82.50
2018-09-14T03:31:04.913Z,82.60
2018-09-14T03:50:18.547Z,82.90
2018-09-14T03:53:01.377Z,82.60
2018-09-14T03:55:41.330Z,83.00
2018-09-14T03:58:32.191Z,83.70
2018-09-14T04:01:15.033Z,84.10
2018-09-14T04:04:00.340Z,83.30
2018-09-14T04:06:37.889Z,83.30
2018-09-14T04:09:12.933Z,83.80
2018-09-14T04:11:50.982Z,83.60
2018-09-14T04:14:31.954Z,83.70
2018-09-14T04:17:11.211Z,83.90
2018-09-14T04:19:56.292Z,83.80
2018-09-14T04:22:26.612Z,84.00
2018-09-14T04:25:03.501Z,83.60
2018-09-14T04:27:41.256Z,83.80
2018-09-14T04:30:26.473Z,84.00
2018-09-14T04:33:10.673Z,83.90
2018-09-14T05:13:43.846Z,83.30
2018-09-14T05:16:17.130Z,85.30
2018-09-14T05:24:30.854Z,84.60
2018-09-14T05:27:07.114Z,85.10
2018-09-14T05:29:39.669Z,85.30
2018-09-14T05:32:14.081Z,85.10
2018-09-14T05:34:47.081Z,85.30
2018-09-14T05:37:21.531Z,85.30
2018-09-14T05:39:55.801Z,85.10
2018-09-14T05:42:27.078Z,85.40
2018-09-14T05:45:02.017Z,85.80
2018-09-14T05:47:39.279Z,85.30
2018-09-14T05:50:10.263Z,85.60
2018-09-14T05:52:44.553Z,85.50
2018-09-14T05:55:14.861Z,85.60
2018-09-14T05:57:44.433Z,86.10
2018-09-14T06:00:19.276Z,85.90
2018-09-14T06:02:58.996Z,85.90
2018-09-14T06:05:40.234Z,85.80
2018-09-14T06:08:15.956Z,85.70
2018-09-14T06:11:02.090Z,85.80
2018-09-14T06:13:38.380Z,85.50
2018-09-14T06:16:11.359Z,85.70
2018-09-14T06:18:42.962Z,85.70
2018-09-14T06:21:16.240Z,86.00
2018-09-14T06:23:52.029Z,85.90
2018-09-14T06:26:40.162Z,85.80
2018-09-14T06:29:18.275Z,85.70
2018-09-14T07:01:42.894Z,86.00
2018-09-14T07:04:27.023Z,85.50
2018-09-14T07:19:28.807Z,85.50
2018-09-14T07:26:13.541Z,85.40
2018-09-14T07:29:03.008Z,84.80
2018-09-14T07:31:48.548Z,86.20
2018-09-14T07:34:48.111Z,85.00
2018-09-14T07:37:35.976Z,85.50
2018-09-14T07:40:28.210Z,84.80
2018-09-14T07:43:05.294Z,84.80
2018-09-14T07:49:39.218Z,84.80
2018-09-14T07:52:30.056Z,84.60
2018-09-14T07:55:24.561Z,84.60
2018-09-14T07:58:10.870Z,84.50
2018-09-14T08:00:57.457Z,84.00
2018-09-14T08:07:04.916Z,83.80
2018-09-14T08:09:55.221Z,83.50
2018-09-14T08:12:50.599Z,83.10
2018-09-14T08:15:56.245Z,83.20
2018-09-14T08:18:43.281Z,83.10
2018-09-14T09:03:11.760Z,81.90
2018-09-14T09:05:56.736Z,78.90
2018-09-14T09:08:34.278Z,78.00
2018-09-14T09:11:06.414Z,79.00
2018-09-14T09:13:44.762Z,78.90
2018-09-14T09:16:25.735Z,79.10
2018-09-14T09:18:54.783Z,79.20
2018-09-14T09:21:43.343Z,79.10
2018-09-14T09:24:19.753Z,79.40
2018-09-14T09:26:56.411Z,79.10
2018-09-14T09:29:31.727Z,79.20
2018-09-14T09:32:10.489Z,79.30
2018-09-14T09:34:44.010Z,79.90
2018-09-14T09:37:23.625Z,79.50
2018-09-14T09:40:02.319Z,79.60
2018-09-14T09:42:43.887Z,79.20
2018-09-14T09:45:33.081Z,79.20
2018-09-14T10:03:28.443Z,77.80
2018-09-14T10:06:03.636Z,77.50
2018-09-14T10:08:32.269Z,77.10
2018-09-14T10:11:03.014Z,76.80
2018-09-14T10:13:34.069Z,76.80
2018-09-14T10:16:10.773Z,77.00
2018-09-14T10:18:42.095Z,77.00
2018-09-14T10:21:15.626Z,76.80
2018-09-14T10:23:52.336Z,76.50
2018-09-14T10:26:29.627Z,75.90
2018-09-14T10:29:00.386Z,75.40
2018-09-14T10:31:36.270Z,74.80
2018-09-14T10:34:08.902Z,74.40
2018-09-14T10:36:42.878Z,73.80
2018-09-14T10:39:13.065Z,73.20
2018-09-14T10:41:43.098Z,72.60
2018-09-14T10:44:12.621Z,71.90
2018-09-14T10:46:41.584Z,71.60
2018-09-14T10:49:12.246Z,71.30
2018-09-14T10:51:41.840Z,71.00
2018-09-14T10:54:12.678Z,70.70
2018-09-14T10:56:44.403Z,70.80
2018-09-14T10:59:13.087Z,71.00
2018-09-14T11:01:45.059Z,71.10
2018-09-14T11:04:14.015Z,70.80
2018-09-14T11:06:48.793Z,70.20
2018-09-14T11:09:18.101Z,70.10
2018-09-14T11:11:49.088Z,69.90
2018-09-14T11:14:21.803Z,69.50
2018-09-14T11:16:54.535Z,69.20
2018-09-14T11:19:27.005Z,69.30
2018-09-14T11:21:57.068Z,69.50
2018-09-14T11:24:29.573Z,69.40
2018-09-14T11:26:58.352Z,69.20
2018-09-14T11:29:29.224Z,69.20
2018-09-14T11:32:01.273Z,69.30
2018-09-14T11:34:33.011Z,69.20
2018-09-14T11:37:05.546Z,69.20
2018-09-14T11:39:36.420Z,69.20
2018-09-14T11:45:48.910Z,69.20
2018-09-14T11:48:39.888Z,69.00
2018-09-14T11:51:20.530Z,68.90
2018-09-14T11:53:49.722Z,68.80
2018-09-14T11:56:21.803Z,68.80
2018-09-14T11:58:52.975Z,68.60
2018-09-14T12:01:23.305Z,68.40
2018-09-14T12:03:52.415Z,68.40
2018-09-14T12:06:22.075Z,68.30
2018-09-14T12:08:51.166Z,68.20
2018-09-14T12:11:20.869Z,68.10
2018-09-14T12:13:50.674Z,67.90
2018-09-14T12:16:20.969Z,67.70
2018-09-14T12:18:50.030Z,67.50
2018-09-14T12:21:19.255Z,67.50
2018-09-14T12:23:48.265Z,67.40
2018-09-14T12:26:26.153Z,67.30
2018-09-14T12:29:05.481Z,67.40
2018-09-14T12:31:39.062Z,67.60
2018-09-14T12:34:12.224Z,67.20
2018-09-14T12:36:47.841Z,67.60
2018-09-14T12:39:23.759Z,67.30
2018-09-14T12:41:53.962Z,67.20
2018-09-14T12:44:25.752Z,67.10
2018-09-14T12:46:54.955Z,66.90
2018-09-14T12:49:28.998Z,66.80
2018-09-14T12:51:58.697Z,66.90
2018-09-14T12:54:28.180Z,66.40
2018-09-14T12:56:57.346Z,66.60
2018-09-14T12:59:26.949Z,66.50
2018-09-14T13:01:56.830Z,66.60
2018-09-14T13:04:26.201Z,66.10
2018-09-14T13:06:55.782Z,66.20
2018-09-14T13:09:24.943Z,66.10
2018-09-14T13:11:54.434Z,66.30
2018-09-14T13:14:26.319Z,66.50
2018-09-14T13:17:03.296Z,66.50
2018-09-14T13:19:32.965Z,66.40
2018-09-14T13:22:12.197Z,66.30
2018-09-14T13:24:49.419Z,66.80
2018-09-14T13:27:28.427Z,65.90
2018-09-14T13:30:05.935Z,65.90
2018-09-14T13:32:38.530Z,66.30
2018-09-14T13:35:10.996Z,66.30
2018-09-14T13:37:41.021Z,66.00
2018-09-14T13:40:19.045Z,66.10
2018-09-14T13:42:48.461Z,65.60
2018-09-14T13:45:22.739Z,65.70
2018-09-14T13:50:35.234Z,65.50
2018-09-14T13:53:07.109Z,65.50
2018-09-14T13:55:41.305Z,65.60
2018-09-14T13:58:16.639Z,65.30
2018-09-14T14:00:52.076Z,64.80
2018-09-14T14:03:29.405Z,64.80
2018-09-14T14:06:04.825Z,64.50
2018-09-14T14:08:41.128Z,64.40
2018-09-14T14:11:12.956Z,64.40
2018-09-14T14:13:49.132Z,64.70
2018-09-14T14:16:22.871Z,64.70
2018-09-14T14:19:02.056Z,65.40
2018-09-14T14:21:47.262Z,65.20
2018-09-14T14:24:37.397Z,65.00
2018-09-14T14:30:46.552Z,65.60
2018-09-14T14:33:49.393Z,65.40
2018-09-14T14:56:55.254Z,65.90
2018-09-14T14:59:28.298Z,65.00
2018-09-14T15:02:11.129Z,64.20
2018-09-14T15:04:52.355Z,64.30
2018-09-14T15:07:29.820Z,63.40
2018-09-14T15:10:07.643Z,63.60
2018-09-14T15:12:48.392Z,63.50
2018-09-14T15:15:27.215Z,63.20
2018-09-14T15:17:57.589Z,62.80
2018-09-14T15:20:31.368Z,62.70
2018-09-14T15:23:02.464Z,62.70
2018-09-14T15:25:32.611Z,63.00
2018-09-14T15:28:01.652Z,63.00
2018-09-14T15:30:32.684Z,63.30
2018-09-14T15:33:05.681Z,63.20
2018-09-14T15:35:35.686Z,63.20
2018-09-14T15:38:06.188Z,63.10
2018-09-14T15:40:38.098Z,63.40
2018-09-14T15:43:09.107Z,63.00
2018-09-14T15:45:38.037Z,63.10
2018-09-14T15:48:06.922Z,63.30
2018-09-14T15:50:38.312Z,63.40
2018-09-14T15:53:08.834Z,63.50
2018-09-14T15:55:41.703Z,63.60
2018-09-14T15:58:11.138Z,63.60
2018-09-14T16:00:48.961Z,63.60
2018-09-14T16:03:24.991Z,63.50
2018-09-14T16:05:54.389Z,63.60
2018-09-14T16:08:25.966Z,63.90
2018-09-14T16:10:54.761Z,63.80
2018-09-14T16:13:24.259Z,63.80
2018-09-14T16:15:53.262Z,63.80
2018-09-14T16:18:23.755Z,63.90
2018-09-14T16:20:53.070Z,64.10
2018-09-14T16:23:31.415Z,64.20
2018-09-14T16:31:53.780Z,64.60
2018-09-14T16:34:28.901Z,65.30
2018-09-14T16:37:12.386Z,65.10
2018-09-14T16:39:42.874Z,65.20
2018-09-14T16:42:14.517Z,64.80
2018-09-14T16:44:44.477Z,64.80
2018-09-14T16:47:13.142Z,64.70
2018-09-14T16:49:42.114Z,65.10
2018-09-14T16:52:10.915Z,65.20
2018-09-14T16:54:39.945Z,65.10
2018-09-14T16:57:09.332Z,65.40
2018-09-14T16:59:43.035Z,65.80
2018-09-14T17:02:13.683Z,66.10
2018-09-14T17:04:48.503Z,66.50
2018-09-14T17:07:18.153Z,66.50
2018-09-14T17:09:49.547Z,66.60
2018-09-14T17:12:19.463Z,66.60
2018-09-14T17:14:48.427Z,66.90
2018-09-14T17:17:18.969Z,66.80
2018-09-14T17:19:48.542Z,66.90
2018-09-14T17:22:18.484Z,66.90
2018-09-14T17:24:48.328Z,67.10
2018-09-14T17:27:19.798Z,67.10
2018-09-14T17:29:50.106Z,67.10
2018-09-14T17:32:22.156Z,67.30
2018-09-14T17:34:51.366Z,67.60
2018-09-14T17:37:20.847Z,67.80
2018-09-14T17:39:51.764Z,67.80
2018-09-14T17:42:23.118Z,67.90
2018-09-14T17:44:57.201Z,68.30
2018-09-14T17:47:30.802Z,68.10
2018-09-14T17:50:00.896Z,68.40
2018-09-14T17:52:30.067Z,68.40
2018-09-14T17:55:02.077Z,68.60
2018-09-14T17:57:35.169Z,68.90
2018-09-14T18:02:59.105Z,69.10
2018-09-14T18:05:34.625Z,69.40
2018-09-14T18:08:14.091Z,69.20
2018-09-14T18:10:47.834Z,69.70
2018-09-14T18:13:18.181Z,69.80
2018-09-14T18:15:51.764Z,70.10
2018-09-14T18:18:29.743Z,70.30
2018-09-14T18:21:06.350Z,70.30
2018-09-14T18:23:40.101Z,70.50
2018-09-14T18:32:03.410Z,71.20
2018-09-14T18:35:00.782Z,71.30
2018-09-14T18:43:23.047Z,72.40
2018-09-14T18:46:17.844Z,72.20
2018-09-14T18:51:36.788Z,72.60
2018-09-14T18:54:10.342Z,72.70
2018-09-14T18:59:37.011Z,73.30
2018-09-14T19:02:16.903Z,73.20
2018-09-14T19:05:06.691Z,73.40
2018-09-14T19:07:45.766Z,73.50
2018-09-14T19:10:51.726Z,74.00
2018-09-14T19:13:29.947Z,74.00
2018-09-14T19:19:45.805Z,74.20
2018-09-14T19:22:22.426Z,74.40
2018-09-14T19:27:47.509Z,74.80
2018-09-14T19:30:57.485Z,75.10
2018-09-14T19:33:54.955Z,75.20
2018-09-14T19:36:47.943Z,75.10
2018-09-14T19:39:34.185Z,75.30
2018-09-14T19:42:16.534Z,75.70
2018-09-14T19:45:02.164Z,75.90
2018-09-14T19:47:58.341Z,76.00
2018-09-14T19:53:12.674Z,75.90
2018-09-14T19:55:59.276Z,76.10
2018-09-14T19:58:37.706Z,76.00
2018-09-14T20:01:10.938Z,76.00
2018-09-14T20:03:44.687Z,76.00
2018-09-14T20:09:28.520Z,76.60
2018-09-14T20:12:13.484Z,76.10
2018-09-14T20:18:05.124Z,76.10
2018-09-14T20:20:53.252Z,76.40
2018-09-14T20:23:42.484Z,76.30
2018-09-14T20:29:18.957Z,76.70
2018-09-14T20:32:02.266Z,76.90
2018-09-14T20:34:47.396Z,77.10
2018-09-14T20:40:24.407Z,77.60
2018-09-14T20:43:10.835Z,77.50
2018-09-14T20:45:57.319Z,77.80
2018-09-14T20:48:46.519Z,78.10
2018-09-14T20:51:33.300Z,78.60
2018-09-14T20:54:15.048Z,78.60
2018-09-14T20:56:53.705Z,78.70
2018-09-14T20:59:39.665Z,78.90
2018-09-14T21:05:07.117Z,78.90
2018-09-14T21:10:42.248Z,79.10
2018-09-14T21:13:20.986Z,78.90
2018-09-14T21:15:53.128Z,79.20
2018-09-14T21:18:41.998Z,79.10
2018-09-14T21:21:16.052Z,79.40
2018-09-14T21:23:55.616Z,79.50
2018-09-14T21:26:37.674Z,79.80
2018-09-14T21:29:24.718Z,79.90
2018-09-14T21:32:04.395Z,80.00
2018-09-14T21:34:35.508Z,80.00
2018-09-14T21:37:05.848Z,80.10
2018-09-14T21:39:36.380Z,80.30
2018-09-14T21:42:08.266Z,80.40
2018-09-14T21:44:39.580Z,80.90
2018-09-14T21:47:11.122Z,80.90
2018-09-14T21:49:42.688Z,81.00
2018-09-14T21:52:17.503Z,81.20
2018-09-14T21:54:52.246Z,80.90
2018-09-14T21:57:24.963Z,81.50
2018-09-14T21:59:55.769Z,81.30
2018-09-14T22:02:29.816Z,82.10
2018-09-14T22:05:01.873Z,81.20
2018-09-14T22:07:33.195Z,81.10
2018-09-14T22:10:04.205Z,81.70
2018-09-14T22:12:36.167Z,81.00
2018-09-14T22:15:10.619Z,81.20
2018-09-14T22:17:48.013Z,81.10
2018-09-14T22:20:17.785Z,81.60
2018-09-14T22:25:34.488Z,81.30
2018-09-14T22:28:07.168Z,81.60
2018-09-14T22:30:36.823Z,81.80
2018-09-14T22:33:17.896Z,81.50
2018-09-14T22:38:55.840Z,80.90
2018-09-14T22:41:33.845Z,80.70
2018-09-14T22:44:08.426Z,81.10
2018-09-14T22:46:42.918Z,81.50
2018-09-14T22:49:19.484Z,81.30
2018-09-14T22:51:55.410Z,81.00
2018-09-14T22:54:30.863Z,81.40
2018-09-14T22:57:06.691Z,81.00
2018-09-14T22:59:40.984Z,81.20
2018-09-14T23:02:12.195Z,81.60
2018-09-14T23:04:50.744Z,81.10
2018-09-14T23:07:25.549Z,81.40
2018-09-14T23:09:56.876Z,81.20
2018-09-14T23:12:33.548Z,81.10
2018-09-14T23:15:08.689Z,80.90
2018-09-14T23:17:45.666Z,81.00
2018-09-14T23:20:20.135Z,81.10
2018-09-14T23:22:52.657Z,81.10
2018-09-14T23:25:30.155Z,80.70
2018-09-14T23:28:00.191Z,80.50
2018-09-14T23:30:32.184Z,80.20
2018-09-14T23:33:02.443Z,80.10
2018-09-14T23:38:43.739Z,79.80
2018-09-14T23:41:22.297Z,79.70
2018-09-14T23:43:51.995Z,80.20
2018-09-14T23:46:22.520Z,79.70
2018-09-14T23:48:52.447Z,79.60
2018-09-14T23:51:22.078Z,79.60
2018-09-14T23:53:55.740Z,79.40
2018-09-14T23:56:40.138Z,79.40
2018-09-14T23:59:18.735Z,79.40
